sensor_id;sensor_type;location;lat;lon;timestamp;temperature;humidity
68867;SHT30;56451;44.804;20.476;2023-04-06T00:02:12;6.37;58.11
68867;SHT30;56451;44.804;20.476;2023-04-06T00:04:40;6.34;57.90
68867;SHT30;56451;44.804;20.476;2023-04-06T00:07:06;6.36;58.05
68867;SHT30;56451;44.804;20.476;2023-04-06T00:09:32;6.36;57.99
68867;SHT30;56451;44.804;20.476;2023-04-06T00:11:58;6.26;57.89
68867;SHT30;56451;44.804;20.476;2023-04-06T00:14:24;6.20;57.96
68867;SHT30;56451;44.804;20.476;2023-04-06T00:16:50;6.15;58.10
68867;SHT30;56451;44.804;20.476;2023-04-06T00:19:16;6.16;58.02
68867;SHT30;56451;44.804;20.476;2023-04-06T00:21:42;6.20;58.59
68867;SHT30;56451;44.804;20.476;2023-04-06T00:24:08;6.19;58.34
68867;SHT30;56451;44.804;20.476;2023-04-06T00:26:34;6.15;58.43
68867;SHT30;56451;44.804;20.476;2023-04-06T00:29:00;6.13;58.43
68867;SHT30;56451;44.804;20.476;2023-04-06T00:31:26;6.12;58.77
68867;SHT30;56451;44.804;20.476;2023-04-06T00:33:52;6.16;58.65
68867;SHT30;56451;44.804;20.476;2023-04-06T00:36:18;6.17;58.27
68867;SHT30;56451;44.804;20.476;2023-04-06T00:38:44;6.22;58.65
68867;SHT30;56451;44.804;20.476;2023-04-06T00:41:11;6.23;58.42
68867;SHT30;56451;44.804;20.476;2023-04-06T00:43:37;6.30;58.15
68867;SHT30;56451;44.804;20.476;2023-04-06T00:46:03;6.32;58.04
68867;SHT30;56451;44.804;20.476;2023-04-06T00:48:29;6.32;58.09
68867;SHT30;56451;44.804;20.476;2023-04-06T00:50:57;6.27;58.27
68867;SHT30;56451;44.804;20.476;2023-04-06T00:53:23;6.30;58.41
68867;SHT30;56451;44.804;20.476;2023-04-06T00:55:51;6.32;58.47
68867;SHT30;56451;44.804;20.476;2023-04-06T00:58:17;6.30;58.13
68867;SHT30;56451;44.804;20.476;2023-04-06T01:00:49;6.32;58.38
68867;SHT30;56451;44.804;20.476;2023-04-06T01:03:18;6.29;58.04
68867;SHT30;56451;44.804;20.476;2023-04-06T01:05:46;6.26;58.53
68867;SHT30;56451;44.804;20.476;2023-04-06T01:08:19;6.26;58.16
68867;SHT30;56451;44.804;20.476;2023-04-06T01:10:47;6.15;58.24
68867;SHT30;56451;44.804;20.476;2023-04-06T01:13:28;6.12;58.26
68867;SHT30;56451;44.804;20.476;2023-04-06T01:15:59;6.12;58.82
68867;SHT30;56451;44.804;20.476;2023-04-06T01:18:35;6.09;58.68
68867;SHT30;56451;44.804;20.476;2023-04-06T01:21:13;6.10;59.14
68867;SHT30;56451;44.804;20.476;2023-04-06T01:23:51;6.10;58.79
68867;SHT30;56451;44.804;20.476;2023-04-06T01:26:24;6.03;58.96
68867;SHT30;56451;44.804;20.476;2023-04-06T01:28:52;6.06;59.13
68867;SHT30;56451;44.804;20.476;2023-04-06T01:31:28;6.13;59.33
68867;SHT30;56451;44.804;20.476;2023-04-06T01:33:54;6.13;59.16
68867;SHT30;56451;44.804;20.476;2023-04-06T01:36:23;6.16;59.13
68867;SHT30;56451;44.804;20.476;2023-04-06T01:38:57;6.16;59.17
68867;SHT30;56451;44.804;20.476;2023-04-06T01:41:30;6.16;59.38
68867;SHT30;56451;44.804;20.476;2023-04-06T01:43:56;6.16;59.27
68867;SHT30;56451;44.804;20.476;2023-04-06T01:46:26;6.13;59.44
68867;SHT30;56451;44.804;20.476;2023-04-06T01:48:52;6.16;59.56
68867;SHT30;56451;44.804;20.476;2023-04-06T01:51:26;6.17;59.25
68867;SHT30;56451;44.804;20.476;2023-04-06T01:53:59;6.12;59.02
68867;SHT30;56451;44.804;20.476;2023-04-06T01:56:36;6.10;59.72
68867;SHT30;56451;44.804;20.476;2023-04-06T01:59:12;6.10;59.48
68867;SHT30;56451;44.804;20.476;2023-04-06T02:01:41;6.07;59.25
68867;SHT30;56451;44.804;20.476;2023-04-06T02:04:08;6.12;59.20
68867;SHT30;56451;44.804;20.476;2023-04-06T02:06:34;6.13;59.36
68867;SHT30;56451;44.804;20.476;2023-04-06T02:09:04;6.02;58.94
68867;SHT30;56451;44.804;20.476;2023-04-06T02:11:30;5.99;59.48
68867;SHT30;56451;44.804;20.476;2023-04-06T02:13:56;6.05;59.79
68867;SHT30;56451;44.804;20.476;2023-04-06T02:16:27;6.05;59.69
68867;SHT30;56451;44.804;20.476;2023-04-06T02:18:54;6.09;60.03
68867;SHT30;56451;44.804;20.476;2023-04-06T02:21:19;6.10;59.70
68867;SHT30;56451;44.804;20.476;2023-04-06T02:23:46;6.07;59.51
68867;SHT30;56451;44.804;20.476;2023-04-06T02:26:13;6.16;59.41
68867;SHT30;56451;44.804;20.476;2023-04-06T02:28:39;6.13;59.65
68867;SHT30;56451;44.804;20.476;2023-04-06T02:31:05;6.17;59.69
68867;SHT30;56451;44.804;20.476;2023-04-06T02:33:31;6.17;59.27
68867;SHT30;56451;44.804;20.476;2023-04-06T02:35:57;6.13;59.70
68867;SHT30;56451;44.804;20.476;2023-04-06T02:38:23;6.13;59.63
68867;SHT30;56451;44.804;20.476;2023-04-06T02:40:51;6.15;59.71
68867;SHT30;56451;44.804;20.476;2023-04-06T02:43:20;6.13;59.05
68867;SHT30;56451;44.804;20.476;2023-04-06T02:45:48;6.06;59.29
68867;SHT30;56451;44.804;20.476;2023-04-06T02:48:15;6.03;59.25
68867;SHT30;56451;44.804;20.476;2023-04-06T02:50:41;6.06;59.30
68867;SHT30;56451;44.804;20.476;2023-04-06T02:53:08;6.02;59.20
68867;SHT30;56451;44.804;20.476;2023-04-06T02:55:36;5.96;59.49
68867;SHT30;56451;44.804;20.476;2023-04-06T02:58:02;5.96;59.49
68867;SHT30;56451;44.804;20.476;2023-04-06T03:00:35;6.01;59.42
68867;SHT30;56451;44.804;20.476;2023-04-06T03:03:02;5.98;59.39
68867;SHT30;56451;44.804;20.476;2023-04-06T03:05:28;5.89;59.63
68867;SHT30;56451;44.804;20.476;2023-04-06T03:07:54;5.79;59.70
68867;SHT30;56451;44.804;20.476;2023-04-06T03:10:28;5.78;59.89
68867;SHT30;56451;44.804;20.476;2023-04-06T03:12:55;5.69;60.40
68867;SHT30;56451;44.804;20.476;2023-04-06T03:15:37;5.68;60.59
68867;SHT30;56451;44.804;20.476;2023-04-06T03:18:12;5.62;61.25
68867;SHT30;56451;44.804;20.476;2023-04-06T03:20:42;5.62;61.34
68867;SHT30;56451;44.804;20.476;2023-04-06T03:23:09;5.64;60.94
68867;SHT30;56451;44.804;20.476;2023-04-06T03:25:39;5.62;61.16
68867;SHT30;56451;44.804;20.476;2023-04-06T03:28:07;5.59;61.55
68867;SHT30;56451;44.804;20.476;2023-04-06T03:30:39;5.62;61.69
68867;SHT30;56451;44.804;20.476;2023-04-06T03:33:06;5.62;61.87
68867;SHT30;56451;44.804;20.476;2023-04-06T03:35:37;5.62;61.93
68867;SHT30;56451;44.804;20.476;2023-04-06T03:38:04;5.65;61.98
68867;SHT30;56451;44.804;20.476;2023-04-06T03:40:31;5.67;62.05
68867;SHT30;56451;44.804;20.476;2023-04-06T03:42:57;5.67;62.37
68867;SHT30;56451;44.804;20.476;2023-04-06T03:45:23;5.65;62.05
68867;SHT30;56451;44.804;20.476;2023-04-06T03:47:50;5.68;62.16
68867;SHT30;56451;44.804;20.476;2023-04-06T03:50:17;5.69;62.25
68867;SHT30;56451;44.804;20.476;2023-04-06T03:52:43;5.68;62.49
68867;SHT30;56451;44.804;20.476;2023-04-06T03:55:10;5.69;62.56
68867;SHT30;56451;44.804;20.476;2023-04-06T03:57:36;5.69;62.29
68867;SHT30;56451;44.804;20.476;2023-04-06T04:00:03;5.65;62.69
68867;SHT30;56451;44.804;20.476;2023-04-06T04:02:38;5.58;62.69
68867;SHT30;56451;44.804;20.476;2023-04-06T04:05:05;5.54;63.00
68867;SHT30;56451;44.804;20.476;2023-04-06T04:07:31;5.52;62.94
68867;SHT30;56451;44.804;20.476;2023-04-06T04:09:57;5.57;62.91
68867;SHT30;56451;44.804;20.476;2023-04-06T04:12:23;5.61;62.61
68867;SHT30;56451;44.804;20.476;2023-04-06T04:14:49;5.55;62.93
68867;SHT30;56451;44.804;20.476;2023-04-06T04:17:16;5.57;62.92
68867;SHT30;56451;44.804;20.476;2023-04-06T04:19:41;5.52;63.05
68867;SHT30;56451;44.804;20.476;2023-04-06T04:22:08;5.52;63.16
68867;SHT30;56451;44.804;20.476;2023-04-06T04:24:38;5.55;63.43
68867;SHT30;56451;44.804;20.476;2023-04-06T04:27:05;5.54;63.47
68867;SHT30;56451;44.804;20.476;2023-04-06T04:29:33;5.54;63.74
68867;SHT30;56451;44.804;20.476;2023-04-06T04:32:03;5.54;63.82
68867;SHT30;56451;44.804;20.476;2023-04-06T04:34:30;5.55;63.67
68867;SHT30;56451;44.804;20.476;2023-04-06T04:36:56;5.58;63.92
68867;SHT30;56451;44.804;20.476;2023-04-06T04:39:34;5.61;63.84
68867;SHT30;56451;44.804;20.476;2023-04-06T04:42:04;5.61;63.36
68867;SHT30;56451;44.804;20.476;2023-04-06T04:44:32;5.59;63.38
68867;SHT30;56451;44.804;20.476;2023-04-06T04:46:58;5.57;63.65
68867;SHT30;56451;44.804;20.476;2023-04-06T04:49:33;5.51;63.71
68867;SHT30;56451;44.804;20.476;2023-04-06T04:51:59;5.50;63.90
68867;SHT30;56451;44.804;20.476;2023-04-06T04:54:37;5.54;63.49
68867;SHT30;56451;44.804;20.476;2023-04-06T04:57:05;5.52;63.55
68867;SHT30;56451;44.804;20.476;2023-04-06T04:59:38;5.40;63.86
68867;SHT30;56451;44.804;20.476;2023-04-06T05:02:13;5.38;63.67
68867;SHT30;56451;44.804;20.476;2023-04-06T05:04:56;5.40;63.68
68867;SHT30;56451;44.804;20.476;2023-04-06T05:07:25;5.41;63.64
68867;SHT30;56451;44.804;20.476;2023-04-06T05:09:53;5.46;63.46
68867;SHT30;56451;44.804;20.476;2023-04-06T05:12:21;5.52;63.27
68867;SHT30;56451;44.804;20.476;2023-04-06T05:15:00;5.47;63.28
68867;SHT30;56451;44.804;20.476;2023-04-06T05:17:26;5.50;62.89
68867;SHT30;56451;44.804;20.476;2023-04-06T05:19:54;5.48;63.06
68867;SHT30;56451;44.804;20.476;2023-04-06T05:22:23;5.47;63.09
68867;SHT30;56451;44.804;20.476;2023-04-06T05:24:57;5.47;63.37
68867;SHT30;56451;44.804;20.476;2023-04-06T05:27:24;5.52;63.24
68867;SHT30;56451;44.804;20.476;2023-04-06T05:29:51;5.47;63.05
68867;SHT30;56451;44.804;20.476;2023-04-06T05:32:17;5.51;62.66
68867;SHT30;56451;44.804;20.476;2023-04-06T05:34:49;5.50;62.92
68867;SHT30;56451;44.804;20.476;2023-04-06T05:37:15;5.47;62.83
68867;SHT30;56451;44.804;20.476;2023-04-06T05:39:42;5.46;62.65
68867;SHT30;56451;44.804;20.476;2023-04-06T05:42:08;5.47;62.96
68867;SHT30;56451;44.804;20.476;2023-04-06T05:44:48;5.50;62.79
68867;SHT30;56451;44.804;20.476;2023-04-06T05:47:16;5.48;62.40
68867;SHT30;56451;44.804;20.476;2023-04-06T05:49:44;5.43;62.74
68867;SHT30;56451;44.804;20.476;2023-04-06T05:52:16;5.44;62.72
68867;SHT30;56451;44.804;20.476;2023-04-06T05:54:45;5.44;62.71
68867;SHT30;56451;44.804;20.476;2023-04-06T05:57:11;5.44;63.09
68867;SHT30;56451;44.804;20.476;2023-04-06T05:59:38;5.47;63.01
68867;SHT30;56451;44.804;20.476;2023-04-06T06:02:05;5.44;62.92
68867;SHT30;56451;44.804;20.476;2023-04-06T06:04:35;5.44;62.96
68867;SHT30;56451;44.804;20.476;2023-04-06T06:07:02;5.41;62.75
68867;SHT30;56451;44.804;20.476;2023-04-06T06:09:41;5.41;62.52
68867;SHT30;56451;44.804;20.476;2023-04-06T06:12:19;5.38;63.10
68867;SHT30;56451;44.804;20.476;2023-04-06T06:14:47;5.40;63.35
68867;SHT30;56451;44.804;20.476;2023-04-06T06:17:13;5.40;63.07
68867;SHT30;56451;44.804;20.476;2023-04-06T06:19:41;5.48;63.42
68867;SHT30;56451;44.804;20.476;2023-04-06T06:22:07;5.50;62.83
68867;SHT30;56451;44.804;20.476;2023-04-06T06:24:38;5.48;62.82
68867;SHT30;56451;44.804;20.476;2023-04-06T06:27:04;5.52;62.79
68867;SHT30;56451;44.804;20.476;2023-04-06T06:29:32;5.54;62.17
68867;SHT30;56451;44.804;20.476;2023-04-06T06:31:59;5.64;62.73
68867;SHT30;56451;44.804;20.476;2023-04-06T06:34:25;5.72;63.13
68867;SHT30;56451;44.804;20.476;2023-04-06T06:36:52;5.74;62.50
68867;SHT30;56451;44.804;20.476;2023-04-06T06:39:21;5.84;62.59
68867;SHT30;56451;44.804;20.476;2023-04-06T06:41:48;5.92;62.37
68867;SHT30;56451;44.804;20.476;2023-04-06T06:44:15;5.99;62.79
68867;SHT30;56451;44.804;20.476;2023-04-06T06:46:42;6.03;61.22
68867;SHT30;56451;44.804;20.476;2023-04-06T06:49:08;6.06;62.06
68867;SHT30;56451;44.804;20.476;2023-04-06T06:51:34;6.10;62.16
68867;SHT30;56451;44.804;20.476;2023-04-06T06:54:01;6.16;61.14
68867;SHT30;56451;44.804;20.476;2023-04-06T06:56:27;6.22;61.09
68867;SHT30;56451;44.804;20.476;2023-04-06T06:58:54;6.25;61.19
68867;SHT30;56451;44.804;20.476;2023-04-06T07:01:20;6.26;60.57
68867;SHT30;56451;44.804;20.476;2023-04-06T07:03:46;6.29;60.71
68867;SHT30;56451;44.804;20.476;2023-04-06T07:06:12;6.32;60.87
68867;SHT30;56451;44.804;20.476;2023-04-06T07:08:39;6.37;60.70
68867;SHT30;56451;44.804;20.476;2023-04-06T07:11:05;6.33;58.92
68867;SHT30;56451;44.804;20.476;2023-04-06T07:13:32;6.32;59.00
68867;SHT30;56451;44.804;20.476;2023-04-06T07:16:00;6.38;59.73
68867;SHT30;56451;44.804;20.476;2023-04-06T07:18:27;6.41;59.03
68867;SHT30;56451;44.804;20.476;2023-04-06T07:20:54;6.44;57.87
68867;SHT30;56451;44.804;20.476;2023-04-06T07:23:20;6.50;57.21
68867;SHT30;56451;44.804;20.476;2023-04-06T07:25:45;6.54;57.47
68867;SHT30;56451;44.804;20.476;2023-04-06T07:28:11;6.60;57.75
68867;SHT30;56451;44.804;20.476;2023-04-06T07:30:38;6.61;57.17
68867;SHT30;56451;44.804;20.476;2023-04-06T07:33:04;6.63;57.37
68867;SHT30;56451;44.804;20.476;2023-04-06T07:35:33;6.63;55.55
68867;SHT30;56451;44.804;20.476;2023-04-06T07:38:00;6.53;56.48
68867;SHT30;56451;44.804;20.476;2023-04-06T07:40:27;6.38;56.55
68867;SHT30;56451;44.804;20.476;2023-04-06T07:42:54;6.27;56.93
68867;SHT30;56451;44.804;20.476;2023-04-06T07:45:20;6.27;57.28
68867;SHT30;56451;44.804;20.476;2023-04-06T07:47:47;6.29;56.77
68867;SHT30;56451;44.804;20.476;2023-04-06T07:50:13;6.33;56.88
68867;SHT30;56451;44.804;20.476;2023-04-06T07:52:39;6.44;57.89
68867;SHT30;56451;44.804;20.476;2023-04-06T07:55:06;6.56;56.76
68867;SHT30;56451;44.804;20.476;2023-04-06T07:57:32;6.57;55.43
68867;SHT30;56451;44.804;20.476;2023-04-06T07:59:58;6.61;56.18
68867;SHT30;56451;44.804;20.476;2023-04-06T08:02:24;6.74;55.55
68867;SHT30;56451;44.804;20.476;2023-04-06T08:04:50;6.80;56.08
68867;SHT30;56451;44.804;20.476;2023-04-06T08:07:16;6.89;55.86
68867;SHT30;56451;44.804;20.476;2023-04-06T08:09:43;6.96;55.44
68867;SHT30;56451;44.804;20.476;2023-04-06T08:12:09;7.08;54.97
68867;SHT30;56451;44.804;20.476;2023-04-06T08:14:35;7.15;56.17
68867;SHT30;56451;44.804;20.476;2023-04-06T08:17:00;7.19;55.48
68867;SHT30;56451;44.804;20.476;2023-04-06T08:19:27;7.23;55.46
68867;SHT30;56451;44.804;20.476;2023-04-06T08:21:53;7.26;54.39
68867;SHT30;56451;44.804;20.476;2023-04-06T08:24:19;7.26;55.06
68867;SHT30;56451;44.804;20.476;2023-04-06T08:26:45;7.19;53.95
68867;SHT30;56451;44.804;20.476;2023-04-06T08:29:11;7.08;53.65
68867;SHT30;56451;44.804;20.476;2023-04-06T08:31:38;7.01;54.40
68867;SHT30;56451;44.804;20.476;2023-04-06T08:34:04;6.92;53.84
68867;SHT30;56451;44.804;20.476;2023-04-06T08:36:31;6.88;54.36
68867;SHT30;56451;44.804;20.476;2023-04-06T08:38:57;6.91;54.45
68867;SHT30;56451;44.804;20.476;2023-04-06T08:41:23;6.98;55.53
68867;SHT30;56451;44.804;20.476;2023-04-06T08:43:59;7.06;54.23
68867;SHT30;56451;44.804;20.476;2023-04-06T08:46:26;7.15;54.63
68867;SHT30;56451;44.804;20.476;2023-04-06T08:48:59;7.26;53.26
68867;SHT30;56451;44.804;20.476;2023-04-06T08:51:28;7.27;53.10
68867;SHT30;56451;44.804;20.476;2023-04-06T08:53:56;7.33;53.28
68867;SHT30;56451;44.804;20.476;2023-04-06T08:56:23;7.33;52.43
68867;SHT30;56451;44.804;20.476;2023-04-06T08:58:50;7.33;53.31
68867;SHT30;56451;44.804;20.476;2023-04-06T09:01:20;7.36;52.33
68867;SHT30;56451;44.804;20.476;2023-04-06T09:03:48;7.36;51.28
68867;SHT30;56451;44.804;20.476;2023-04-06T09:06:15;7.33;49.81
68867;SHT30;56451;44.804;20.476;2023-04-06T09:08:41;7.29;51.34
68867;SHT30;56451;44.804;20.476;2023-04-06T09:11:08;7.26;50.30
68867;SHT30;56451;44.804;20.476;2023-04-06T09:13:45;7.34;50.91
68867;SHT30;56451;44.804;20.476;2023-04-06T09:16:12;7.49;50.25
68867;SHT30;56451;44.804;20.476;2023-04-06T09:18:38;7.53;46.54
68867;SHT30;56451;44.804;20.476;2023-04-06T09:21:06;7.60;47.44
68867;SHT30;56451;44.804;20.476;2023-04-06T09:23:33;7.62;48.68
68867;SHT30;56451;44.804;20.476;2023-04-06T09:26:16;7.69;48.61
68867;SHT30;56451;44.804;20.476;2023-04-06T09:31:13;7.74;44.49
68867;SHT30;56451;44.804;20.476;2023-04-06T09:33:41;7.73;45.47
68867;SHT30;56451;44.804;20.476;2023-04-06T09:36:08;7.80;45.71
68867;SHT30;56451;44.804;20.476;2023-04-06T09:38:38;7.80;46.56
68867;SHT30;56451;44.804;20.476;2023-04-06T09:41:04;7.77;46.38
68867;SHT30;56451;44.804;20.476;2023-04-06T09:43:31;7.87;47.37
68867;SHT30;56451;44.804;20.476;2023-04-06T09:45:57;7.97;45.65
68867;SHT30;56451;44.804;20.476;2023-04-06T09:48:24;7.99;45.05
68867;SHT30;56451;44.804;20.476;2023-04-06T09:50:53;8.02;44.61
68867;SHT30;56451;44.804;20.476;2023-04-06T09:53:21;7.98;45.00
68867;SHT30;56451;44.804;20.476;2023-04-06T09:55:52;8.01;45.08
68867;SHT30;56451;44.804;20.476;2023-04-06T09:58:22;8.02;44.51
68867;SHT30;56451;44.804;20.476;2023-04-06T10:03:32;8.18;44.58
68867;SHT30;56451;44.804;20.476;2023-04-06T10:06:11;8.26;43.70
68867;SHT30;56451;44.804;20.476;2023-04-06T10:08:38;8.29;43.44
68867;SHT30;56451;44.804;20.476;2023-04-06T10:11:09;8.31;43.36
68867;SHT30;56451;44.804;20.476;2023-04-06T10:13:36;8.22;42.83
68867;SHT30;56451;44.804;20.476;2023-04-06T10:16:02;8.09;42.97
68867;SHT30;56451;44.804;20.476;2023-04-06T10:18:30;8.08;43.28
68867;SHT30;56451;44.804;20.476;2023-04-06T10:21:01;7.99;43.36
68867;SHT30;56451;44.804;20.476;2023-04-06T10:23:33;7.99;42.64
68867;SHT30;56451;44.804;20.476;2023-04-06T10:26:01;8.08;43.44
68867;SHT30;56451;44.804;20.476;2023-04-06T10:28:35;8.04;43.91
68867;SHT30;56451;44.804;20.476;2023-04-06T10:31:05;8.05;44.06
68867;SHT30;56451;44.804;20.476;2023-04-06T10:33:31;8.09;43.64
68867;SHT30;56451;44.804;20.476;2023-04-06T10:35:58;8.05;42.51
68867;SHT30;56451;44.804;20.476;2023-04-06T10:38:34;8.09;43.92
68867;SHT30;56451;44.804;20.476;2023-04-06T10:44:04;8.02;43.28
68867;SHT30;56451;44.804;20.476;2023-04-06T10:46:30;8.01;43.69
68867;SHT30;56451;44.804;20.476;2023-04-06T10:48:57;7.99;44.50
68867;SHT30;56451;44.804;20.476;2023-04-06T10:51:28;7.95;44.18
68867;SHT30;56451;44.804;20.476;2023-04-06T10:53:55;7.90;44.50
68867;SHT30;56451;44.804;20.476;2023-04-06T10:56:23;7.90;44.61
68867;SHT30;56451;44.804;20.476;2023-04-06T10:58:53;7.88;43.90
68867;SHT30;56451;44.804;20.476;2023-04-06T11:01:22;7.91;44.34
68867;SHT30;56451;44.804;20.476;2023-04-06T11:03:50;7.85;44.89
68867;SHT30;56451;44.804;20.476;2023-04-06T11:06:21;7.90;45.52
68867;SHT30;56451;44.804;20.476;2023-04-06T11:08:48;7.95;43.82
68867;SHT30;56451;44.804;20.476;2023-04-06T11:11:17;7.97;44.80
68867;SHT30;56451;44.804;20.476;2023-04-06T11:13:54;7.95;45.90
68867;SHT30;56451;44.804;20.476;2023-04-06T11:16:21;8.11;44.12
68867;SHT30;56451;44.804;20.476;2023-04-06T11:18:52;8.16;43.01
68867;SHT30;56451;44.804;20.476;2023-04-06T11:21:20;8.19;44.23
68867;SHT30;56451;44.804;20.476;2023-04-06T11:23:46;8.26;44.55
68867;SHT30;56451;44.804;20.476;2023-04-06T11:26:13;8.39;44.09
68867;SHT30;56451;44.804;20.476;2023-04-06T11:28:41;8.49;44.15
68867;SHT30;56451;44.804;20.476;2023-04-06T11:31:09;8.61;44.43
68867;SHT30;56451;44.804;20.476;2023-04-06T11:33:37;8.69;42.89
68867;SHT30;56451;44.804;20.476;2023-04-06T11:36:06;8.76;43.32
68867;SHT30;56451;44.804;20.476;2023-04-06T11:38:33;8.77;43.70
68867;SHT30;56451;44.804;20.476;2023-04-06T11:41:00;8.85;42.73
68867;SHT30;56451;44.804;20.476;2023-04-06T11:43:30;8.88;42.14
68867;SHT30;56451;44.804;20.476;2023-04-06T11:46:03;8.85;42.40
68867;SHT30;56451;44.804;20.476;2023-04-06T11:48:30;8.84;42.85
68867;SHT30;56451;44.804;20.476;2023-04-06T11:50:59;8.85;43.40
68867;SHT30;56451;44.804;20.476;2023-04-06T11:53:28;8.84;41.61
68867;SHT30;56451;44.804;20.476;2023-04-06T11:55:54;8.79;43.52
68867;SHT30;56451;44.804;20.476;2023-04-06T11:58:21;8.85;42.27
68867;SHT30;56451;44.804;20.476;2023-04-06T12:00:47;8.88;41.97
68867;SHT30;56451;44.804;20.476;2023-04-06T12:03:13;8.90;41.48
68867;SHT30;56451;44.804;20.476;2023-04-06T12:05:39;8.92;42.55
68867;SHT30;56451;44.804;20.476;2023-04-06T12:08:06;8.92;42.20
68867;SHT30;56451;44.804;20.476;2023-04-06T12:10:32;8.91;42.74
68867;SHT30;56451;44.804;20.476;2023-04-06T12:12:58;8.92;42.34
68867;SHT30;56451;44.804;20.476;2023-04-06T12:15:24;8.94;42.52
68867;SHT30;56451;44.804;20.476;2023-04-06T12:17:50;8.97;42.30
68867;SHT30;56451;44.804;20.476;2023-04-06T12:20:16;9.01;42.96
68867;SHT30;56451;44.804;20.476;2023-04-06T12:22:42;9.01;43.28
68867;SHT30;56451;44.804;20.476;2023-04-06T12:25:08;9.04;43.57
68867;SHT30;56451;44.804;20.476;2023-04-06T12:27:34;9.14;43.23
68867;SHT30;56451;44.804;20.476;2023-04-06T12:30:00;9.24;43.09
68867;SHT30;56451;44.804;20.476;2023-04-06T12:32:27;9.35;43.25
68867;SHT30;56451;44.804;20.476;2023-04-06T12:34:55;9.42;42.32
68867;SHT30;56451;44.804;20.476;2023-04-06T12:37:21;9.48;43.26
68867;SHT30;56451;44.804;20.476;2023-04-06T12:39:50;9.45;42.21
68867;SHT30;56451;44.804;20.476;2023-04-06T12:42:16;9.38;42.79
68867;SHT30;56451;44.804;20.476;2023-04-06T12:44:42;9.43;42.70
68867;SHT30;56451;44.804;20.476;2023-04-06T12:47:10;9.40;42.37
68867;SHT30;56451;44.804;20.476;2023-04-06T12:49:36;9.28;42.85
68867;SHT30;56451;44.804;20.476;2023-04-06T12:52:03;9.28;43.37
68867;SHT30;56451;44.804;20.476;2023-04-06T12:54:29;9.24;43.27
68867;SHT30;56451;44.804;20.476;2023-04-06T12:56:54;9.24;43.57
68867;SHT30;56451;44.804;20.476;2023-04-06T12:59:22;9.18;43.74
68867;SHT30;56451;44.804;20.476;2023-04-06T13:01:48;9.24;44.35
68867;SHT30;56451;44.804;20.476;2023-04-06T13:04:14;9.31;43.69
68867;SHT30;56451;44.804;20.476;2023-04-06T13:06:41;9.38;43.30
68867;SHT30;56451;44.804;20.476;2023-04-06T13:09:07;9.42;43.73
68867;SHT30;56451;44.804;20.476;2023-04-06T13:11:33;9.50;43.53
68867;SHT30;56451;44.804;20.476;2023-04-06T13:13:59;9.59;42.12
68867;SHT30;56451;44.804;20.476;2023-04-06T13:16:25;9.65;42.44
68867;SHT30;56451;44.804;20.476;2023-04-06T13:18:51;9.69;42.69
68867;SHT30;56451;44.804;20.476;2023-04-06T13:21:17;9.75;42.43
68867;SHT30;56451;44.804;20.476;2023-04-06T13:23:44;9.75;42.39
68867;SHT30;56451;44.804;20.476;2023-04-06T13:26:10;9.77;41.31
68867;SHT30;56451;44.804;20.476;2023-04-06T13:28:37;9.65;41.28
68867;SHT30;56451;44.804;20.476;2023-04-06T13:31:06;9.55;41.68
68867;SHT30;56451;44.804;20.476;2023-04-06T13:33:32;9.39;42.54
68867;SHT30;56451;44.804;20.476;2023-04-06T13:35:58;9.43;42.40
68867;SHT30;56451;44.804;20.476;2023-04-06T13:38:25;9.42;43.07
68867;SHT30;56451;44.804;20.476;2023-04-06T13:40:51;9.29;43.26
68867;SHT30;56451;44.804;20.476;2023-04-06T13:43:17;9.24;43.31
68867;SHT30;56451;44.804;20.476;2023-04-06T13:45:50;9.22;43.75
68867;SHT30;56451;44.804;20.476;2023-04-06T13:48:17;9.18;43.72
68867;SHT30;56451;44.804;20.476;2023-04-06T13:50:43;9.18;43.20
68867;SHT30;56451;44.804;20.476;2023-04-06T13:53:09;9.14;43.72
68867;SHT30;56451;44.804;20.476;2023-04-06T13:55:35;9.08;43.65
68867;SHT30;56451;44.804;20.476;2023-04-06T13:58:02;9.00;44.12
68867;SHT30;56451;44.804;20.476;2023-04-06T14:00:28;8.92;44.64
68867;SHT30;56451;44.804;20.476;2023-04-06T14:02:54;8.92;44.92
68867;SHT30;56451;44.804;20.476;2023-04-06T14:05:21;8.87;45.64
68867;SHT30;56451;44.804;20.476;2023-04-06T14:07:50;8.84;45.95
68867;SHT30;56451;44.804;20.476;2023-04-06T14:10:16;8.83;45.71
68867;SHT30;56451;44.804;20.476;2023-04-06T14:12:43;8.81;46.39
68867;SHT30;56451;44.804;20.476;2023-04-06T14:15:12;8.98;44.97
68867;SHT30;56451;44.804;20.476;2023-04-06T14:17:38;9.01;45.47
68867;SHT30;56451;44.804;20.476;2023-04-06T14:20:05;9.00;45.40
68867;SHT30;56451;44.804;20.476;2023-04-06T14:22:32;9.01;45.65
68867;SHT30;56451;44.804;20.476;2023-04-06T14:24:58;9.05;45.79
68867;SHT30;56451;44.804;20.476;2023-04-06T14:27:24;9.05;45.89
68867;SHT30;56451;44.804;20.476;2023-04-06T14:29:51;9.15;45.39
68867;SHT30;56451;44.804;20.476;2023-04-06T14:32:19;9.21;44.50
68867;SHT30;56451;44.804;20.476;2023-04-06T14:34:46;9.24;44.58
68867;SHT30;56451;44.804;20.476;2023-04-06T14:37:12;9.29;44.47
68867;SHT30;56451;44.804;20.476;2023-04-06T14:39:38;9.31;44.30
68867;SHT30;56451;44.804;20.476;2023-04-06T14:42:04;9.35;45.11
68867;SHT30;56451;44.804;20.476;2023-04-06T14:44:33;9.40;44.56
68867;SHT30;56451;44.804;20.476;2023-04-06T14:46:59;9.42;43.94
68867;SHT30;56451;44.804;20.476;2023-04-06T14:49:25;9.34;44.15
68867;SHT30;56451;44.804;20.476;2023-04-06T14:51:51;9.35;43.80
68867;SHT30;56451;44.804;20.476;2023-04-06T14:54:17;9.39;44.27
68867;SHT30;56451;44.804;20.476;2023-04-06T14:56:43;9.50;43.32
68867;SHT30;56451;44.804;20.476;2023-04-06T14:59:09;9.63;43.73
68867;SHT30;56451;44.804;20.476;2023-04-06T15:01:37;9.76;42.92
68867;SHT30;56451;44.804;20.476;2023-04-06T15:04:03;9.80;42.18
68867;SHT30;56451;44.804;20.476;2023-04-06T15:06:30;9.79;42.05
68867;SHT30;56451;44.804;20.476;2023-04-06T15:08:56;9.86;42.40
68867;SHT30;56451;44.804;20.476;2023-04-06T15:11:22;9.91;39.56
68867;SHT30;56451;44.804;20.476;2023-04-06T15:13:48;9.96;39.42
68867;SHT30;56451;44.804;20.476;2023-04-06T15:16:14;10.04;39.01
68867;SHT30;56451;44.804;20.476;2023-04-06T15:18:40;10.01;39.97
68867;SHT30;56451;44.804;20.476;2023-04-06T15:21:06;9.97;40.55
68867;SHT30;56451;44.804;20.476;2023-04-06T15:23:33;9.91;40.31
68867;SHT30;56451;44.804;20.476;2023-04-06T15:26:00;9.77;40.36
68867;SHT30;56451;44.804;20.476;2023-04-06T15:28:27;9.69;40.19
68867;SHT30;56451;44.804;20.476;2023-04-06T15:30:54;9.56;40.52
68867;SHT30;56451;44.804;20.476;2023-04-06T15:33:21;9.42;40.93
68867;SHT30;56451;44.804;20.476;2023-04-06T15:35:50;9.34;41.30
68867;SHT30;56451;44.804;20.476;2023-04-06T15:38:16;9.35;40.65
68867;SHT30;56451;44.804;20.476;2023-04-06T15:40:44;9.34;41.38
68867;SHT30;56451;44.804;20.476;2023-04-06T15:43:12;9.40;42.05